sensor_id;sensor_type;location;lat;lon;timestamp;pressure;altitude;pressure_sealevel;temperature;humidity
23589;BME280;11972;48.078;11.876;2023-11-22T00:03:35;95513.91;;;5.64;100.00
23589;BME280;11972;48.078;11.876;2023-11-22T00:07:35;95507.38;;;5.68;100.00
23589;BME280;11972;48.078;11.876;2023-11-22T00:11:37;95516.19;;;5.67;100.00
23589;BME280;11972;48.078;11.876;2023-11-22T00:15:37;95512.75;;;5.66;100.00
23589;BME280;11972;48.078;11.876;2023-11-22T00:19:37;95519.00;;;5.65;100.00
23589;BME280;11972;48.078;11.876;2023-11-22T00:23:38;95516.19;;;5.67;100.00
23589;BME280;11972;48.078;11.876;2023-11-22T00:27:39;95510.97;;;5.67;100.00
23589;BME280;11972;48.078;11.876;2023-11-22T00:31:39;95514.56;;;5.66;100.00
23589;BME280;11972;48.078;11.876;2023-11-22T00:35:40;95516.19;;;5.67;100.00
23589;BME280;11972;48.078;11.876;2023-11-22T00:39:41;95522.72;;;5.63;100.00
23589;BME280;11972;48.078;11.876;2023-11-22T00:43:41;95523.72;;;5.62;100.00
23589;BME280;11972;48.078;11.876;2023-11-22T00:47:42;95535.53;;;5.66;100.00
23589;BME280;11972;48.078;11.876;2023-11-22T00:51:42;95531.94;;;5.67;100.00
23589;BME280;11972;48.078;11.876;2023-11-22T00:55:43;95535.53;;;5.66;100.00
23589;BME280;11972;48.078;11.876;2023-11-22T00:59:43;95541.47;;;5.68;100.00
23589;BME280;11972;48.078;11.876;2023-11-22T01:03:44;95540.78;;;5.66;100.00
23589;BME280;11972;48.078;11.876;2023-11-22T01:07:44;95538.44;;;5.63;100.00
23589;BME280;11972;48.078;11.876;2023-11-22T01:11:44;95541.69;;;5.57;100.00
23589;BME280;11972;48.078;11.876;2023-11-22T01:15:45;95544.31;;;5.57;100.00
23589;BME280;11972;48.078;11.876;2023-11-22T01:19:45;95547.50;;;5.51;100.00
23589;BME280;11972;48.078;11.876;2023-11-22T01:23:46;95550.81;;;5.53;100.00
23589;BME280;11972;48.078;11.876;2023-11-22T01:27:46;95551.41;;;5.46;100.00
23589;BME280;11972;48.078;11.876;2023-11-22T01:31:47;95558.31;;;5.47;100.00
23589;BME280;11972;48.078;11.876;2023-11-22T01:35:47;95551.28;;;5.48;100.00
23589;BME280;11972;48.078;11.876;2023-11-22T01:39:49;95556.34;;;5.50;100.00
23589;BME280;11972;48.078;11.876;2023-11-22T01:43:50;95563.56;;;5.47;100.00
23589;BME280;11972;48.078;11.876;2023-11-22T01:47:51;95551.28;;;5.48;100.00
23589;BME280;11972;48.078;11.876;2023-11-22T01:51:52;95565.47;;;5.45;100.00
23589;BME280;11972;48.078;11.876;2023-11-22T01:55:53;95579.69;;;5.25;100.00
23589;BME280;11972;48.078;11.876;2023-11-22T01:59:53;95585.97;;;4.87;100.00
23589;BME280;11972;48.078;11.876;2023-11-22T02:03:54;95575.38;;;4.51;100.00
23589;BME280;11972;48.078;11.876;2023-11-22T02:07:55;95591.13;;;4.32;100.00
23589;BME280;11972;48.078;11.876;2023-11-22T02:11:57;95586.22;;;4.19;100.00
23589;BME280;11972;48.078;11.876;2023-11-22T02:15:57;95591.06;;;3.94;100.00
23589;BME280;11972;48.078;11.876;2023-11-22T02:19:59;95587.38;;;3.78;100.00
23589;BME280;11972;48.078;11.876;2023-11-22T02:23:59;95597.41;;;3.53;100.00
23589;BME280;11972;48.078;11.876;2023-11-22T02:27:59;95596.31;;;3.27;100.00
23589;BME280;11972;48.078;11.876;2023-11-22T02:32:00;95603.03;;;3.19;100.00
23589;BME280;11972;48.078;11.876;2023-11-22T02:36:00;95617.13;;;2.97;100.00
23589;BME280;11972;48.078;11.876;2023-11-22T02:40:05;95614.44;;;2.68;100.00
23589;BME280;11972;48.078;11.876;2023-11-22T02:44:05;95620.38;;;2.49;100.00
23589;BME280;11972;48.078;11.876;2023-11-22T02:48:08;95618.72;;;2.48;100.00
23589;BME280;11972;48.078;11.876;2023-11-22T02:52:09;95618.47;;;2.52;100.00
23589;BME280;11972;48.078;11.876;2023-11-22T02:56:12;95618.72;;;2.48;100.00
23589;BME280;11972;48.078;11.876;2023-11-22T03:00:12;95621.50;;;2.57;100.00
23589;BME280;11972;48.078;11.876;2023-11-22T03:04:15;95628.63;;;2.55;100.00
23589;BME280;11972;48.078;11.876;2023-11-22T03:08:16;95632.97;;;2.44;100.00
23589;BME280;11972;48.078;11.876;2023-11-22T03:12:16;95634.88;;;2.42;100.00
23589;BME280;11972;48.078;11.876;2023-11-22T03:16:16;95637.94;;;2.47;100.00
23589;BME280;11972;48.078;11.876;2023-11-22T03:20:17;95647.66;;;2.45;100.00
23589;BME280;11972;48.078;11.876;2023-11-22T03:24:17;95653.59;;;2.47;100.00
23589;BME280;11972;48.078;11.876;2023-11-22T03:28:17;95646.44;;;2.49;100.00
23589;BME280;11972;48.078;11.876;2023-11-22T03:32:18;95658.47;;;2.41;100.00
23589;BME280;11972;48.078;11.876;2023-11-22T03:36:18;95659.00;;;2.35;100.00
23589;BME280;11972;48.078;11.876;2023-11-22T03:40:18;95676.50;;;2.23;100.00
23589;BME280;11972;48.078;11.876;2023-11-22T03:44:20;95681.50;;;2.15;100.00
23589;BME280;11972;48.078;11.876;2023-11-22T03:48:20;95685.19;;;2.12;100.00
23589;BME280;11972;48.078;11.876;2023-11-22T03:52:22;95690.06;;;2.06;100.00
23589;BME280;11972;48.078;11.876;2023-11-22T03:56:22;95692.00;;;2.04;100.00
23589;BME280;11972;48.078;11.876;2023-11-22T04:00:22;95694.16;;;1.98;100.00
23589;BME280;11972;48.078;11.876;2023-11-22T04:04:24;95694.38;;;1.95;100.00
23589;BME280;11972;48.078;11.876;2023-11-22T04:08:24;95690.59;;;1.99;100.00
23589;BME280;11972;48.078;11.876;2023-11-22T04:12:25;95700.66;;;1.93;100.00
23589;BME280;11972;48.078;11.876;2023-11-22T04:16:26;95710.53;;;1.89;100.00
23589;BME280;11972;48.078;11.876;2023-11-22T04:20:26;95714.53;;;1.93;100.00
23589;BME280;11972;48.078;11.876;2023-11-22T04:24:26;95712.41;;;1.87;100.00
23589;BME280;11972;48.078;11.876;2023-11-22T04:28:28;95716.19;;;1.94;100.00
23589;BME280;11972;48.078;11.876;2023-11-22T04:32:29;95709.88;;;1.97;100.00
23589;BME280;11972;48.078;11.876;2023-11-22T04:36:30;95720.66;;;2.04;100.00
23589;BME280;11972;48.078;11.876;2023-11-22T04:40:30;95725.41;;;1.98;100.00
23589;BME280;11972;48.078;11.876;2023-11-22T04:44:31;95713.66;;;2.04;100.00
23589;BME280;11972;48.078;11.876;2023-11-22T04:48:32;95734.75;;;2.01;100.00
23589;BME280;11972;48.078;11.876;2023-11-22T04:52:32;95741.41;;;1.94;100.00
23589;BME280;11972;48.078;11.876;2023-11-22T04:56:33;95750.28;;;1.91;100.00
23589;BME280;11972;48.078;11.876;2023-11-22T05:00:33;95768.41;;;1.93;100.00
23589;BME280;11972;48.078;11.876;2023-11-22T05:04:33;95771.13;;;1.91;100.00
23589;BME280;11972;48.078;11.876;2023-11-22T05:08:34;95766.50;;;1.95;100.00
23589;BME280;11972;48.078;11.876;2023-11-22T05:12:34;95773.72;;;2.03;100.00
23589;BME280;11972;48.078;11.876;2023-11-22T05:16:35;95787.94;;;1.98;100.00
23589;BME280;11972;48.078;11.876;2023-11-22T05:20:35;95786.03;;;2.01;100.00
23589;BME280;11972;48.078;11.876;2023-11-22T05:24:35;95795.53;;;1.90;100.00
23589;BME280;11972;48.078;11.876;2023-11-22T05:28:38;95804.88;;;1.93;100.00
23589;BME280;11972;48.078;11.876;2023-11-22T05:32:39;95806.53;;;1.94;100.00
23589;BME280;11972;48.078;11.876;2023-11-22T05:36:39;95807.38;;;1.94;100.00
23589;BME280;11972;48.078;11.876;2023-11-22T05:40:40;95805.72;;;1.93;100.00
23589;BME280;11972;48.078;11.876;2023-11-22T05:44:42;95817.81;;;1.83;100.00
23589;BME280;11972;48.078;11.876;2023-11-22T05:48:43;95824.44;;;1.76;100.00
23589;BME280;11972;48.078;11.876;2023-11-22T05:52:44;95839.25;;;1.76;100.00
23589;BME280;11972;48.078;11.876;2023-11-22T05:56:44;95848.00;;;1.74;100.00
23589;BME280;11972;48.078;11.876;2023-11-22T06:00:45;95851.44;;;1.75;100.00
23589;BME280;11972;48.078;11.876;2023-11-22T06:04:46;95857.59;;;1.74;100.00
23589;BME280;11972;48.078;11.876;2023-11-22T06:08:46;95857.94;;;1.81;100.00
23589;BME280;11972;48.078;11.876;2023-11-22T06:12:46;95868.34;;;1.81;100.00
23589;BME280;11972;48.078;11.876;2023-11-22T06:16:47;95873.00;;;1.77;100.00
23589;BME280;11972;48.078;11.876;2023-11-22T06:20:47;95869.22;;;1.81;100.00
23589;BME280;11972;48.078;11.876;2023-11-22T06:24:48;95878.66;;;1.82;100.00
23589;BME280;11972;48.078;11.876;2023-11-22T06:28:49;95879.84;;;1.78;100.00
23589;BME280;11972;48.078;11.876;2023-11-22T06:32:49;95890.88;;;1.82;100.00
23589;BME280;11972;48.078;11.876;2023-11-22T06:36:49;95891.09;;;1.79;100.00
23589;BME280;11972;48.078;11.876;2023-11-22T06:40:50;95891.47;;;1.85;100.00
23589;BME280;11972;48.078;11.876;2023-11-22T06:44:50;95907.19;;;1.95;100.00
23589;BME280;11972;48.078;11.876;2023-11-22T06:48:53;95914.06;;;1.85;100.00
23589;BME280;11972;48.078;11.876;2023-11-22T06:52:53;95917.16;;;1.79;100.00
23589;BME280;11972;48.078;11.876;2023-11-22T06:56:54;95919.63;;;1.80;100.00
23589;BME280;11972;48.078;11.876;2023-11-22T07:00:55;95925.09;;;1.77;100.00
23589;BME280;11972;48.078;11.876;2023-11-22T07:04:55;95925.31;;;1.74;100.00
23589;BME280;11972;48.078;11.876;2023-11-22T07:08:55;95937.63;;;1.72;100.00
23589;BME280;11972;48.078;11.876;2023-11-22T07:12:56;95935.59;;;1.76;100.00
23589;BME280;11972;48.078;11.876;2023-11-22T07:16:56;95941.41;;;1.68;100.00
23589;BME280;11972;48.078;11.876;2023-11-22T07:20:57;95953.72;;;1.66;100.00
23589;BME280;11972;48.078;11.876;2023-11-22T07:24:57;95949.47;;;1.65;100.00
23589;BME280;11972;48.078;11.876;2023-11-22T07:29:01;95969.94;;;1.69;100.00
23589;BME280;11972;48.078;11.876;2023-11-22T07:33:01;95964.25;;;1.76;100.00
23589;BME280;11972;48.078;11.876;2023-11-22T07:37:02;95971.47;;;1.83;100.00
23589;BME280;11972;48.078;11.876;2023-11-22T07:41:03;95971.25;;;1.86;100.00
23589;BME280;11972;48.078;11.876;2023-11-22T07:45:03;95977.66;;;1.93;100.00
23589;BME280;11972;48.078;11.876;2023-11-22T07:49:04;95991.75;;;2.02;100.00
23589;BME280;11972;48.078;11.876;2023-11-22T07:53:05;95998.72;;;2.02;100.00
23589;BME280;11972;48.078;11.876;2023-11-22T07:57:05;96001.59;;;1.98;100.00
23589;BME280;11972;48.078;11.876;2023-11-22T08:01:06;96017.22;;;1.98;100.00
23589;BME280;11972;48.078;11.876;2023-11-22T08:05:13;96026.47;;;2.03;100.00
23589;BME280;11972;48.078;11.876;2023-11-22T08:09:15;96036.53;;;2.07;100.00
23589;BME280;11972;48.078;11.876;2023-11-22T08:13:16;96038.41;;;2.16;100.00
23589;BME280;11972;48.078;11.876;2023-11-22T08:17:19;96028.13;;;2.15;100.00
23589;BME280;11972;48.078;11.876;2023-11-22T08:21:20;96036.41;;;2.20;100.00
23589;BME280;11972;48.078;11.876;2023-11-22T08:25:20;96055.34;;;2.22;100.00
23589;BME280;11972;48.078;11.876;2023-11-22T08:29:20;96058.19;;;2.30;100.00
23589;BME280;11972;48.078;11.876;2023-11-22T08:33:21;96067.22;;;2.37;100.00
23589;BME280;11972;48.078;11.876;2023-11-22T08:37:22;96061.31;;;2.35;100.00
23589;BME280;11972;48.078;11.876;2023-11-22T08:41:22;96066.97;;;2.40;100.00
23589;BME280;11972;48.078;11.876;2023-11-22T08:45:23;96077.03;;;2.34;100.00
23589;BME280;11972;48.078;11.876;2023-11-22T08:49:23;96071.47;;;2.38;100.00
23589;BME280;11972;48.078;11.876;2023-11-22T08:53:24;96084.03;;;2.33;100.00
23589;BME280;11972;48.078;11.876;2023-11-22T08:57:25;96086.19;;;2.39;100.00
23589;BME280;11972;48.078;11.876;2023-11-22T09:01:26;96086.28;;;2.38;100.00
23589;BME280;11972;48.078;11.876;2023-11-22T09:05:26;96092.22;;;2.29;100.00
23589;BME280;11972;48.078;11.876;2023-11-22T09:09:27;96095.56;;;2.31;100.00
23589;BME280;11972;48.078;11.876;2023-11-22T09:13:31;96104.19;;;2.20;100.00
23589;BME280;11972;48.078;11.876;2023-11-22T09:17:31;96114.13;;;2.26;100.00
23589;BME280;11972;48.078;11.876;2023-11-22T09:21:34;96117.94;;;2.33;100.00
23589;BME280;11972;48.078;11.876;2023-11-22T09:25:35;96123.16;;;2.33;100.00
23589;BME280;11972;48.078;11.876;2023-11-22T09:29:36;96128.13;;;2.36;100.00
23589;BME280;11972;48.078;11.876;2023-11-22T09:33:36;96144.72;;;2.35;100.00
23589;BME280;11972;48.078;11.876;2023-11-22T09:37:37;96144.72;;;2.35;100.00
23589;BME280;11972;48.078;11.876;2023-11-22T09:41:38;96142.31;;;2.21;100.00
23589;BME280;11972;48.078;11.876;2023-11-22T09:45:39;96149.69;;;2.27;100.00
23589;BME280;11972;48.078;11.876;2023-11-22T09:49:40;96145.44;;;2.37;100.00
23589;BME280;11972;48.078;11.876;2023-11-22T09:53:57;96150.28;;;2.42;100.00
23589;BME280;11972;48.078;11.876;2023-11-22T09:58:01;96156.69;;;2.27;100.00
23589;BME280;11972;48.078;11.876;2023-11-22T10:02:02;96141.88;;;2.27;100.00
23589;BME280;11972;48.078;11.876;2023-11-22T10:06:04;96158.34;;;2.28;100.00
23589;BME280;11972;48.078;11.876;2023-11-22T10:10:05;96157.03;;;2.33;100.00
23589;BME280;11972;48.078;11.876;2023-11-22T10:14:06;96152.81;;;2.43;100.00
23589;BME280;11972;48.078;11.876;2023-11-22T10:18:07;96157.91;;;2.56;100.00
23589;BME280;11972;48.078;11.876;2023-11-22T10:22:08;96169.28;;;2.66;100.00
23589;BME280;11972;48.078;11.876;2023-11-22T10:26:09;96166.09;;;2.74;100.00
23589;BME280;11972;48.078;11.876;2023-11-22T10:30:09;96158.97;;;2.65;100.00
23589;BME280;11972;48.078;11.876;2023-11-22T10:34:10;96164.41;;;2.62;100.00
23589;BME280;11972;48.078;11.876;2023-11-22T10:38:13;96167.13;;;2.71;100.00
23589;BME280;11972;48.078;11.876;2023-11-22T10:42:14;96182.56;;;2.74;100.00
23589;BME280;11972;48.078;11.876;2023-11-22T10:46:15;96169.88;;;2.70;100.00
23589;BME280;11972;48.078;11.876;2023-11-22T10:50:16;96161.56;;;2.87;100.00
23589;BME280;11972;48.078;11.876;2023-11-22T10:54:18;96163.00;;;3.14;100.00
23589;BME280;11972;48.078;11.876;2023-11-22T10:58:19;96170.81;;;3.25;100.00
23589;BME280;11972;48.078;11.876;2023-11-22T11:02:22;96171.50;;;3.38;100.00
23589;BME280;11972;48.078;11.876;2023-11-22T11:06:26;96187.91;;;3.61;100.00
23589;BME280;11972;48.078;11.876;2023-11-22T11:10:33;96197.75;;;3.69;100.00
23589;BME280;11972;48.078;11.876;2023-11-22T11:14:34;96204.69;;;3.59;100.00
23589;BME280;11972;48.078;11.876;2023-11-22T11:18:35;96218.84;;;3.88;100.00
23589;BME280;11972;48.078;11.876;2023-11-22T11:22:36;96212.47;;;3.70;100.00
23589;BME280;11972;48.078;11.876;2023-11-22T11:26:36;96218.81;;;3.56;100.00
23589;BME280;11972;48.078;11.876;2023-11-22T11:30:41;96208.81;;;3.61;100.00
23589;BME280;11972;48.078;11.876;2023-11-22T11:34:48;96214.03;;;3.61;100.00
23589;BME280;11972;48.078;11.876;2023-11-22T11:38:52;96203.75;;;3.48;100.00
23589;BME280;11972;48.078;11.876;2023-11-22T11:42:54;96195.22;;;3.46;100.00
23589;BME280;11972;48.078;11.876;2023-11-22T11:46:55;96188.44;;;3.44;100.00
23589;BME280;11972;48.078;11.876;2023-11-22T11:50:55;96188.56;;;3.42;100.00
23589;BME280;11972;48.078;11.876;2023-11-22T11:54:55;96182.41;;;3.32;100.00
23589;BME280;11972;48.078;11.876;2023-11-22T11:58:57;96176.72;;;3.38;100.00
23589;BME280;11972;48.078;11.876;2023-11-22T12:03:01;96188.28;;;3.68;100.00
23589;BME280;11972;48.078;11.876;2023-11-22T12:07:01;96189.09;;;3.68;100.00
23589;BME280;11972;48.078;11.876;2023-11-22T12:11:04;96190.59;;;3.50;100.00
23589;BME280;11972;48.078;11.876;2023-11-22T12:15:08;96182.84;;;3.60;100.00
23589;BME280;11972;48.078;11.876;2023-11-22T12:19:09;96189.69;;;3.72;100.00
23589;BME280;11972;48.078;11.876;2023-11-22T12:23:11;96201.41;;;3.78;100.00
23589;BME280;11972;48.078;11.876;2023-11-22T12:27:12;96218.63;;;3.80;100.00
23589;BME280;11972;48.078;11.876;2023-11-22T12:31:14;96217.97;;;3.56;100.00
23589;BME280;11972;48.078;11.876;2023-11-22T12:35:14;96212.78;;;3.44;100.00
23589;BME280;11972;48.078;11.876;2023-11-22T12:39:15;96219.19;;;3.29;100.00
23589;BME280;11972;48.078;11.876;2023-11-22T12:43:18;96224.56;;;3.28;100.00
23589;BME280;11972;48.078;11.876;2023-11-22T12:47:33;96219.94;;;3.20;100.00
23589;BME280;11972;48.078;11.876;2023-11-22T12:51:36;96219.00;;;3.10;100.00
23589;BME280;11972;48.078;11.876;2023-11-22T12:55:46;96215.31;;;3.01;100.00
23589;BME280;11972;48.078;11.876;2023-11-22T12:59:48;96230.13;;;2.89;100.00
23589;BME280;11972;48.078;11.876;2023-11-22T13:03:49;96233.91;;;2.74;100.00
23589;BME280;11972;48.078;11.876;2023-11-22T13:07:50;96252.31;;;2.72;100.00
23589;BME280;11972;48.078;11.876;2023-11-22T13:11:51;96258.09;;;2.65;100.00
23589;BME280;11972;48.078;11.876;2023-11-22T13:15:52;96258.09;;;2.65;100.00
23589;BME280;11972;48.078;11.876;2023-11-22T13:19:52;96267.78;;;2.63;100.00
23589;BME280;11972;48.078;11.876;2023-11-22T13:23:54;96261.53;;;2.65;100.00
23589;BME280;11972;48.078;11.876;2023-11-22T13:27:55;96254.28;;;2.58;100.00
23589;BME280;11972;48.078;11.876;2023-11-22T13:31:56;96250.97;;;2.56;100.00
23589;BME280;11972;48.078;11.876;2023-11-22T13:35:57;96262.84;;;2.60;100.00
23589;BME280;11972;48.078;11.876;2023-11-22T13:39:58;96258.78;;;2.56;100.00
23589;BME280;11972;48.078;11.876;2023-11-22T13:43:59;96251.22;;;2.64;100.00
23589;BME280;11972;48.078;11.876;2023-11-22T13:47:59;96254.78;;;2.74;100.00
23589;BME280;11972;48.078;11.876;2023-11-22T13:52:06;96258.97;;;2.99;100.00
23589;BME280;11972;48.078;11.876;2023-11-22T13:56:07;96259.09;;;3.09;100.00
23589;BME280;11972;48.078;11.876;2023-11-22T14:00:09;96260.50;;;3.24;100.00
23589;BME280;11972;48.078;11.876;2023-11-22T14:04:14;96265.50;;;3.38;100.00
23589;BME280;11972;48.078;11.876;2023-11-22T14:08:15;96248.66;;;3.31;100.00
23589;BME280;11972;48.078;11.876;2023-11-22T14:12:15;96248.31;;;3.13;100.00
23589;BME280;11972;48.078;11.876;2023-11-22T14:16:18;96257.56;;;3.06;100.00
23589;BME280;11972;48.078;11.876;2023-11-22T14:20:19;96249.84;;;2.93;100.00
23589;BME280;11972;48.078;11.876;2023-11-22T14:24:21;96270.91;;;2.79;100.00
23589;BME280;11972;48.078;11.876;2023-11-22T14:28:22;96282.31;;;2.78;100.00
23589;BME280;11972;48.078;11.876;2023-11-22T14:32:23;96290.59;;;2.83;100.00
23589;BME280;11972;48.078;11.876;2023-11-22T14:36:24;96305.66;;;2.80;100.00
23589;BME280;11972;48.078;11.876;2023-11-22T14:40:24;96302.72;;;2.84;100.00
23589;BME280;11972;48.078;11.876;2023-11-22T14:44:25;96292.28;;;2.84;100.00
23589;BME280;11972;48.078;11.876;2023-11-22T14:48:25;96300.09;;;2.73;100.00
23589;BME280;11972;48.078;11.876;2023-11-22T14:52:27;96304.31;;;2.63;100.00
23589;BME280;11972;48.078;11.876;2023-11-22T14:56:27;96305.66;;;2.68;100.00
23589;BME280;11972;48.078;11.876;2023-11-22T15:00:27;96307.00;;;2.85;100.00
23589;BME280;11972;48.078;11.876;2023-11-22T15:04:29;96319.00;;;2.99;100.00
23589;BME280;11972;48.078;11.876;2023-11-22T15:08:29;96331.25;;;3.10;100.00
23589;BME280;11972;48.078;11.876;2023-11-22T15:12:32;96338.84;;;3.13;100.00
23589;BME280;11972;48.078;11.876;2023-11-22T15:16:33;96351.03;;;3.12;100.00
23589;BME280;11972;48.078;11.876;2023-11-22T15:20:36;96351.16;;;3.11;100.00
23589;BME280;11972;48.078;11.876;2023-11-22T15:24:38;96355.09;;;3.05;100.00
23589;BME280;11972;48.078;11.876;2023-11-22T15:28:38;96353.75;;;2.88;100.00
23589;BME280;11972;48.078;11.876;2023-11-22T15:32:39;96348.44;;;2.66;100.00
23589;BME280;11972;48.078;11.876;2023-11-22T15:36:40;96343.97;;;2.44;100.00
23589;BME280;11972;48.078;11.876;2023-11-22T15:40:41;96327.94;;;2.37;100.00
23589;BME280;11972;48.078;11.876;2023-11-22T15:44:41;96322.66;;;2.26;100.00
23589;BME280;11972;48.078;11.876;2023-11-22T15:48:42;96338.09;;;2.29;100.00
23589;BME280;11972;48.078;11.876;2023-11-22T15:52:44;96334.53;;;2.30;100.00
23589;BME280;11972;48.078;11.876;2023-11-22T15:56:44;96331.38;;;2.38;100.00
23589;BME280;11972;48.078;11.876;2023-11-22T16:00:45;96332.19;;;2.38;100.00
23589;BME280;11972;48.078;11.876;2023-11-22T16:04:46;96329.66;;;2.49;100.00
23589;BME280;11972;48.078;11.876;2023-11-22T16:08:47;96337.75;;;2.58;100.00
23589;BME280;11972;48.078;11.876;2023-11-22T16:12:47;96342.53;;;2.64;100.00
23589;BME280;11972;48.078;11.876;2023-11-22T16:16:47;96341.72;;;2.51;100.00
23589;BME280;11972;48.078;11.876;2023-11-22T16:20:50;96352.91;;;2.29;100.00
23589;BME280;11972;48.078;11.876;2023-11-22T16:24:51;96357.22;;;2.17;100.00
23589;BME280;11972;48.078;11.876;2023-11-22T16:28:52;96365.50;;;2.11;100.00
23589;BME280;11972;48.078;11.876;2023-11-22T16:32:53;96380.47;;;2.20;100.00
23589;BME280;11972;48.078;11.876;2023-11-22T16:36:53;96394.91;;;2.37;100.00
23589;BME280;11972;48.078;11.876;2023-11-22T16:40:53;96404.56;;;2.47;100.00
23589;BME280;11972;48.078;11.876;2023-11-22T16:44:54;96425.47;;;2.59;100.00
23589;BME280;11972;48.078;11.876;2023-11-22T16:48:55;96428.34;;;2.67;100.00
23589;BME280;11972;48.078;11.876;2023-11-22T16:52:55;96429.69;;;2.72;100.00
23589;BME280;11972;48.078;11.876;2023-11-22T16:56:56;96435.47;;;2.65;100.00
23589;BME280;11972;48.078;11.876;2023-11-22T17:00:57;96437.72;;;2.45;100.00
23589;BME280;11972;48.078;11.876;2023-11-22T17:04:57;96438.59;;;2.33;100.00
23589;BME280;11972;48.078;11.876;2023-11-22T17:08:58;96427.97;;;2.36;100.00
23589;BME280;11972;48.078;11.876;2023-11-22T17:12:58;96437.31;;;2.52;100.00
23589;BME280;11972;48.078;11.876;2023-11-22T17:16:59;96434.97;;;2.60;100.00
23589;BME280;11972;48.078;11.876;2023-11-22T17:20:59;96440.56;;;2.42;100.00
23589;BME280;11972;48.078;11.876;2023-11-22T17:25:00;96454.75;;;2.38;100.00
23589;BME280;11972;48.078;11.876;2023-11-22T17:29:02;96457.16;;;2.41;100.00
23589;BME280;11972;48.078;11.876;2023-11-22T17:33:03;96447.00;;;2.49;100.00
23589;BME280;11972;48.078;11.876;2023-11-22T17:37:04;96451.72;;;2.44;100.00
23589;BME280;11972;48.078;11.876;2023-11-22T17:41:04;96452.38;;;2.35;100.00
23589;BME280;11972;48.078;11.876;2023-11-22T17:45:06;96450.72;;;2.21;100.00
23589;BME280;11972;48.078;11.876;2023-11-22T17:49:08;96452.41;;;2.22;100.00
23589;BME280;11972;48.078;11.876;2023-11-22T17:53:09;96463.72;;;2.34;100.00
23589;BME280;11972;48.078;11.876;2023-11-22T17:57:10;96455.91;;;2.34;100.00
23589;BME280;11972;48.078;11.876;2023-11-22T18:01:11;96459.38;;;2.22;100.00
23589;BME280;11972;48.078;11.876;2023-11-22T18:05:12;96458.66;;;2.20;100.00
23589;BME280;11972;48.078;11.876;2023-11-22T18:09:12;96474.91;;;2.36;100.00
23589;BME280;11972;48.078;11.876;2023-11-22T18:13:13;96466.56;;;2.31;100.00
23589;BME280;11972;48.078;11.876;2023-11-22T18:17:13;96478.91;;;2.16;100.00
23589;BME280;11972;48.078;11.876;2023-11-22T18:21:13;96479.34;;;2.10;100.00
23589;BME280;11972;48.078;11.876;2023-11-22T18:25:14;96488.81;;;2.11;100.00
23589;BME280;11972;48.078;11.876;2023-11-22T18:29:14;96501.03;;;2.11;100.00
23589;BME280;11972;48.078;11.876;2023-11-22T18:33:21;96497.47;;;2.12;100.00
23589;BME280;11972;48.078;11.876;2023-11-22T18:37:22;96497.78;;;2.20;100.00
23589;BME280;11972;48.078;11.876;2023-11-22T18:41:22;96514.53;;;2.29;100.00
23589;BME280;11972;48.078;11.876;2023-11-22T18:45:22;96515.28;;;2.31;100.00
23589;BME280;11972;48.078;11.876;2023-11-22T18:49:23;96514.13;;;2.35;100.00
23589;BME280;11972;48.078;11.876;2023-11-22T18:53:24;96509.09;;;2.44;100.00
23589;BME280;11972;48.078;11.876;2023-11-22T18:57:25;96507.09;;;2.48;100.00
23589;BME280;11972;48.078;11.876;2023-11-22T19:01:26;96507.47;;;2.55;100.00
23589;BME280;11972;48.078;11.876;2023-11-22T19:05:26;96506.56;;;2.56;100.00
23589;BME280;11972;48.078;11.876;2023-11-22T19:09:28;96507.41;;;2.56;100.00
23589;BME280;11972;48.078;11.876;2023-11-22T19:13:28;96511.13;;;2.65;100.00
23589;BME280;11972;48.078;11.876;2023-11-22T19:17:28;96510.66;;;2.71;100.00
23589;BME280;11972;48.078;11.876;2023-11-22T19:21:29;96531.53;;;2.71;100.00
23589;BME280;11972;48.078;11.876;2023-11-22T19:25:30;96527.78;;;2.75;100.00
23589;BME280;11972;48.078;11.876;2023-11-22T19:29:32;96513.56;;;2.79;100.00
23589;BME280;11972;48.078;11.876;2023-11-22T19:33:32;96513.81;;;2.76;100.00
23589;BME280;11972;48.078;11.876;2023-11-22T19:37:33;96504.19;;;2.77;100.00
23589;BME280;11972;48.078;11.876;2023-11-22T19:41:34;96489.16;;;2.80;100.00
23589;BME280;11972;48.078;11.876;2023-11-22T19:45:34;96492.94;;;2.76;100.00
23589;BME280;11972;48.078;11.876;2023-11-22T19:49:35;96485.09;;;2.76;100.00
23589;BME280;11972;48.078;11.876;2023-11-22T19:53:35;96500.31;;;2.82;100.00
23589;BME280;11972;48.078;11.876;2023-11-22T19:57:37;96504.34;;;2.86;100.00
23589;BME280;11972;48.078;11.876;2023-11-22T20:01:41;96521.47;;;2.90;100.00
23589;BME280;11972;48.078;11.876;2023-11-22T20:05:42;96535.69;;;2.86;100.00
23589;BME280;11972;48.078;11.876;2023-11-22T20:09:43;96536.34;;;2.77;100.00
23589;BME280;11972;48.078;11.876;2023-11-22T20:13:43;96544.38;;;2.74;100.00
23589;BME280;11972;48.078;11.876;2023-11-22T20:17:43;96533.81;;;2.76;100.00
23589;BME280;11972;48.078;11.876;2023-11-22T20:21:45;96518.78;;;2.79;100.00
23589;BME280;11972;48.078;11.876;2023-11-22T20:25:45;96499.47;;;2.82;100.00
23589;BME280;11972;48.078;11.876;2023-11-22T20:29:46;96502.28;;;2.79;100.00
23589;BME280;11972;48.078;11.876;2023-11-22T20:33:46;96503.03;;;2.81;100.00
23589;BME280;11972;48.078;11.876;2023-11-22T20:37:46;96495.81;;;2.84;100.00
23589;BME280;11972;48.078;11.876;2023-11-22T20:41:47;96487.38;;;2.81;100.00
23589;BME280;11972;48.078;11.876;2023-11-22T20:45:47;96477.16;;;2.78;100.00
23589;BME280;11972;48.078;11.876;2023-11-22T20:49:48;96496.03;;;2.81;100.00
23589;BME280;11972;48.078;11.876;2023-11-22T20:53:48;96471.59;;;2.82;100.00
23589;BME280;11972;48.078;11.876;2023-11-22T20:57:49;96464.50;;;2.84;100.00
23589;BME280;11972;48.078;11.876;2023-11-22T21:01:49;96455.13;;;2.82;100.00